首页
METAR-TAF:

METAR-TAF

机场 :

奥利弗·坦博国际机场

约翰内斯堡, 南非共和國

纬度: 26-08S, 经度: 028-14E, 海拔: 1694米

当前天气观测

该预报发布于37分钟前的11:00 UTC
风速9节,风向西北,在西转西北东北之间变化
温度 28°C
湿度 40%
气压 1021 hPa
能见度10公里或以上
1500米以下无云,无积雨云

METAR: FAOR 241100Z 32009KT 300V040 CAVOK 28/13 Q1021 NOSIG

时间: 13:37 (11:37 UTC)

预报

该预报发布于7小时和37分钟前的04:00 UTC
预报有效从24日的 06点(UTC)到 25日的 12点(UTC)
风速10节,风向北转东北
能见度10公里或以上
1500米以下无云,无积雨云
成为
从 24日的 08点(UTC)到 24日的 10点(UTC)
风速8节,风向北转西北
几率 40% :
短暂存在
从 24日的 15点(UTC)到 24日的 18点(UTC)
能見度: 5000
少量云层高于3500英尺, 积雨云.
雷暴, 雨
成为
从 24日的 16点(UTC)到 24日的 18点(UTC)
风速13节,风向东转东南
几率 30% :
短暂存在
从 24日的 19点(UTC)到 24日的 21点(UTC)
少量云层高于4000英尺, 积雨云.
雷暴, 小雨
成为
从 24日的 19点(UTC)到 24日的 21点(UTC)
风速10节,风向东北
几率 30% :
短暂存在
从 25日的 04点(UTC)到 25日的 06点(UTC)
多云层高于800英尺
成为
从 25日的 05点(UTC)到 25日的 07点(UTC)
风速10节,风向北转西北

TAF: FAOR 240400Z 2406/2512 03010KT CAVOK TX31/2413Z TN18/2503Z BECMG 2408/2410 33008KT PROB40 TEMPO 2415/2418 5000 TSRA FEW035CB BECMG 2416/2418 12013KT PROB30 TEMPO 2419/2421 -TSRA FEW040CB BECMG 2419/2421 05010KT PROB30 TEMPO 2504/2506 BKN008 BECMG 2505/2507 34010KT

超过4000个机场的气象观测和天气预报(METAR&TAF报告)。

可查询的气象台以黄色和红色小点在地图上表示。

将鼠标移到小点上方,可查看气象台名称。

然后点击查看天气观测和预报。

如需切换地图:点击带黑十字的绿色按钮放大地图;点击带横线的绿色按钮缩小地图;或者点击绿色箭头查看邻近地区的地图。


METAR-TAF: